Time;durP1;ratioP1;P1;durP2;ratioP2;P2;SDS_P1;SDS_P2;PMS_P1;PMS_P2;Temp;Humidity;BMP_temperature;BMP_pressure;BME280_temperature;BME280_humidity;BME280_pressure;Samples;Min_cycle;Max_cycle;Signal;HPM_P1;HPM_P2
2023/06/30 00:02:25;;;;;;;;;;;15.20;99.90;;;;;;4984133;28;20343;-75
2023/06/30 00:05:27;;;;;;;;;;;15.20;99.90;;;;;;4986425;28;20709;-75
2023/06/30 00:08:32;;;;;;;;;;;15.20;99.90;;;;;;4961680;28;19925;-74
2023/06/30 00:11:37;;;;;;;;;;;13.80;99.90;;;;;;4997601;28;20288;-73
2023/06/30 00:17:42;;;;;;;;;;;15.10;99.90;;;;;;4985106;28;19940;-78
2023/06/30 00:20:54;;;;;;;;;;;15.10;99.90;;;;;;4986210;28;19940;-77
2023/06/30 00:23:21;;;;;;;;;;;15.00;99.90;;;;;;4982971;28;19929;-75
2023/06/30 00:26:10;;;;;;;;;;;15.10;99.90;;;;;;4972586;28;19959;-74
2023/06/30 00:32:15;;;;;;;;;;;15.00;99.90;;;;;;4943242;28;20139;-77
2023/06/30 00:35:11;;;;;;;;;;;15.10;99.90;;;;;;4991386;28;19928;-78
2023/06/30 00:38:39;;;;;;;;;;;15.10;99.90;;;;;;4978576;28;19999;-74
2023/06/30 00:41:33;;;;;;;;;;;15.10;99.90;;;;;;4981297;28;19975;-75
2023/06/30 00:44:05;;;;;;;;;;;13.80;99.90;;;;;;4994016;28;20093;-74
2023/06/30 00:49:47;;;;;;;;;;;16.80;99.90;;;;;;4920955;29;20054;-73
2023/06/30 00:52:32;;;;;;;;;;;15.10;99.90;;;;;;4944011;28;20011;-75
2023/06/30 00:55:21;;;;;;;;;;;15.10;99.90;;;;;;4927612;28;19931;-74
2023/06/30 00:58:12;;;;;;;;;;;15.10;99.90;;;;;;4899735;29;19967;-76
2023/06/30 01:00:49;;;;;;;;;;;15.10;99.90;;;;;;4928517;28;20316;-75
2023/06/30 01:03:35;;;;;;;;;;;15.10;99.90;;;;;;4936144;28;20000;-74
2023/06/30 01:06:38;;;;;;;;;;;15.10;99.90;;;;;;4949181;28;19922;-76
2023/06/30 01:09:49;;;;;;;;;;;15.20;99.90;;;;;;4920928;28;20292;-73
2023/06/30 01:12:58;;;;;;;;;;;15.20;99.90;;;;;;4952098;28;21995;-78
2023/06/30 01:16:04;;;;;;;;;;;15.10;99.90;;;;;;4950582;28;19974;-77
2023/06/30 01:18:55;;;;;;;;;;;15.00;99.90;;;;;;4906370;28;19926;-77
2023/06/30 01:21:46;;;;;;;;;;;15.20;99.90;;;;;;4900114;28;19929;-74
2023/06/30 01:24:36;;;;;;;;;;;15.20;99.90;;;;;;4953614;28;19992;-76
2023/06/30 01:27:13;;;;;;;;;;;15.20;99.90;;;;;;4938222;28;19925;-75
2023/06/30 01:33:10;;;;;;;;;;;15.20;99.90;;;;;;4970514;28;20020;-77
2023/06/30 01:35:56;;;;;;;;;;;15.20;99.90;;;;;;4956810;28;20720;-75
2023/06/30 01:38:31;;;;;;;;;;;15.20;99.90;;;;;;4969491;28;19953;-73
2023/06/30 01:41:08;;;;;;;;;;;15.20;99.90;;;;;;4984253;28;19926;-75
2023/06/30 01:47:01;;;;;;;;;;;15.30;99.90;;;;;;4970884;28;19922;-73
2023/06/30 01:50:00;;;;;;;;;;;15.30;99.90;;;;;;4956042;28;20024;-73
2023/06/30 01:53:26;;;;;;;;;;;15.30;99.90;;;;;;4969979;28;20479;-77
2023/06/30 01:59:03;;;;;;;;;;;15.30;99.90;;;;;;4969717;28;19983;-74
2023/06/30 02:01:54;;;;;;;;;;;15.30;99.90;;;;;;4970162;28;20359;-75
2023/06/30 02:04:41;;;;;;;;;;;15.20;99.90;;;;;;4970289;28;19932;-74
2023/06/30 02:07:18;;;;;;;;;;;15.20;99.90;;;;;;4979486;28;19928;-73
2023/06/30 02:10:06;;;;;;;;;;;15.20;99.90;;;;;;4998160;28;20813;-74
2023/06/30 02:13:06;;;;;;;;;;;15.20;99.90;;;;;;4947255;28;19926;-73
2023/06/30 02:16:00;;;;;;;;;;;15.10;99.90;;;;;;4918089;28;20014;-75
2023/06/30 02:18:39;;;;;;;;;;;15.10;99.90;;;;;;4948592;28;20312;-74
2023/06/30 02:21:25;;;;;;;;;;;14.10;99.90;;;;;;4950291;28;19936;-76
2023/06/30 02:23:53;;;;;;;;;;;15.10;99.90;;;;;;4934222;28;19926;-75
2023/06/30 02:26:31;;;;;;;;;;;15.30;99.90;;;;;;4900869;29;19938;-76
2023/06/30 02:29:06;;;;;;;;;;;15.10;99.90;;;;;;4910257;29;20567;-74
2023/06/30 02:31:40;;;;;;;;;;;15.10;99.90;;;;;;4896378;29;19930;-76
2023/06/30 02:34:36;;;;;;;;;;;15.10;99.90;;;;;;4865510;29;19924;-76
2023/06/30 02:37:36;;;;;;;;;;;15.10;99.90;;;;;;4879878;29;20414;-74
2023/06/30 02:40:34;;;;;;;;;;;15.10;99.90;;;;;;4807706;29;20448;-74
2023/06/30 02:43:37;;;;;;;;;;;15.10;99.90;;;;;;4880573;29;20124;-74
2023/06/30 02:46:05;;;;;;;;;;;15.00;99.90;;;;;;4878220;29;20014;-76
2023/06/30 02:49:02;;;;;;;;;;;15.00;99.90;;;;;;4805285;29;19928;-74
2023/06/30 02:51:42;;;;;;;;;;;15.00;99.90;;;;;;4809238;29;20007;-75
2023/06/30 02:54:22;;;;;;;;;;;15.00;99.90;;;;;;4810981;29;19929;-74
2023/06/30 02:57:11;;;;;;;;;;;15.00;99.90;;;;;;4828386;29;19927;-74
2023/06/30 03:00:09;;;;;;;;;;;14.20;99.90;;;;;;4868854;29;19938;-77
2023/06/30 03:05:39;;;;;;;;;;;15.00;99.90;;;;;;4906240;29;19934;-74
2023/06/30 03:08:41;;;;;;;;;;;15.00;99.90;;;;;;4934247;28;19949;-73
2023/06/30 03:11:51;;;;;;;;;;;15.00;99.90;;;;;;4931584;29;19937;-77
2023/06/30 03:15:19;;;;;;;;;;;15.00;99.90;;;;;;4929397;28;20008;-75
2023/06/30 03:18:12;;;;;;;;;;;13.60;99.90;;;;;;4935456;28;19978;-74
2023/06/30 03:24:38;;;;;;;;;;;15.00;99.90;;;;;;4968701;28;19930;-74
2023/06/30 03:27:29;;;;;;;;;;;15.00;99.90;;;;;;4961714;28;19969;-77
2023/06/30 03:30:12;;;;;;;;;;;15.10;99.90;;;;;;4958433;28;20144;-77
2023/06/30 03:36:10;;;;;;;;;;;14.90;99.90;;;;;;4968924;28;19921;-74
2023/06/30 03:38:58;;;;;;;;;;;15.00;99.90;;;;;;5027618;28;20228;-77
2023/06/30 03:41:40;;;;;;;;;;;14.90;99.90;;;;;;5004592;28;20039;-75
2023/06/30 03:44:19;;;;;;;;;;;15.00;99.90;;;;;;5018258;28;19933;-78
2023/06/30 03:47:08;;;;;;;;;;;15.00;99.90;;;;;;4999635;28;19920;-73
2023/06/30 03:49:46;;;;;;;;;;;15.00;99.90;;;;;;4985819;28;19932;-75
2023/06/30 03:52:31;;;;;;;;;;;15.10;99.90;;;;;;5021118;28;19963;-75
2023/06/30 03:55:07;;;;;;;;;;;15.10;99.90;;;;;;5002423;28;20435;-76
2023/06/30 03:57:51;;;;;;;;;;;15.10;99.90;;;;;;5022663;28;20007;-74
2023/06/30 04:00:41;;;;;;;;;;;15.70;99.90;;;;;;5031220;28;19927;-74
2023/06/30 04:03:30;;;;;;;;;;;15.10;99.90;;;;;;5016077;28;19978;-76
2023/06/30 04:06:50;;;;;;;;;;;15.20;99.90;;;;;;5000858;28;19978;-76
2023/06/30 04:09:28;;;;;;;;;;;15.20;99.90;;;;;;5016194;28;20016;-73
2023/06/30 04:12:11;;;;;;;;;;;15.30;99.90;;;;;;5012484;28;20144;-78
2023/06/30 04:14:43;;;;;;;;;;;15.30;99.90;;;;;;4985724;28;19948;-77
2023/06/30 04:17:45;;;;;;;;;;;15.30;99.90;;;;;;4970038;28;20728;-76
2023/06/30 04:20:29;;;;;;;;;;;15.40;99.90;;;;;;4962092;28;19964;-78
2023/06/30 04:23:14;;;;;;;;;;;15.40;99.90;;;;;;4999735;28;19922;-75
2023/06/30 04:25:48;;;;;;;;;;;15.50;99.90;;;;;;4988731;28;20331;-74
2023/06/30 04:28:32;;;;;;;;;;;15.50;99.90;;;;;;4974206;28;19930;-74
2023/06/30 04:31:18;;;;;;;;;;;15.50;99.90;;;;;;4981239;28;19929;-77
2023/06/30 04:34:10;;;;;;;;;;;15.60;99.90;;;;;;4983567;28;20892;-74
2023/06/30 04:36:55;;;;;;;;;;;15.60;99.90;;;;;;4986427;28;20018;-74
2023/06/30 04:39:29;;;;;;;;;;;15.70;99.90;;;;;;4969946;28;20079;-75
2023/06/30 04:42:00;;;;;;;;;;;15.50;99.90;;;;;;4968038;28;19984;-74
2023/06/30 04:44:38;;;;;;;;;;;15.70;99.90;;;;;;4967830;28;19922;-75
2023/06/30 04:47:23;;;;;;;;;;;15.70;99.90;;;;;;5029407;28;19920;-78
2023/06/30 04:49:53;;;;;;;;;;;15.70;99.90;;;;;;4995820;28;19924;-74
2023/06/30 04:52:36;;;;;;;;;;;15.80;99.90;;;;;;5014838;28;19934;-76
2023/06/30 04:55:35;;;;;;;;;;;15.80;99.90;;;;;;4970763;28;19922;-75
2023/06/30 04:58:09;;;;;;;;;;;15.80;99.90;;;;;;4958955;28;19992;-79
2023/06/30 05:00:57;;;;;;;;;;;15.80;99.90;;;;;;4971167;28;19926;-75
2023/06/30 05:03:28;;;;;;;;;;;15.80;99.90;;;;;;4956608;28;20000;-77
2023/06/30 05:06:35;;;;;;;;;;;15.90;99.90;;;;;;4892448;29;19931;-76
2023/06/30 05:15:23;;;;;;;;;;;16.00;99.90;;;;;;4938811;28;19926;-76
2023/06/30 05:17:52;;;;;;;;;;;16.00;99.90;;;;;;4960366;28;19925;-68
2023/06/30 05:20:18;;;;;;;;;;;16.10;99.90;;;;;;4957870;28;19926;-72
2023/06/30 05:22:43;;;;;;;;;;;16.20;99.90;;;;;;4971737;28;19956;-74
2023/06/30 05:25:09;;;;;;;;;;;16.20;99.90;;;;;;4955691;28;19925;-72
2023/06/30 05:27:35;;;;;;;;;;;16.30;99.90;;;;;;4971584;28;21739;-69
2023/06/30 05:30:00;;;;;;;;;;;16.30;99.90;;;;;;4955230;28;20000;-70
2023/06/30 05:32:26;;;;;;;;;;;16.40;99.90;;;;;;4923800;28;20479;-72
2023/06/30 05:34:52;;;;;;;;;;;16.50;99.90;;;;;;4955980;28;20017;-70
2023/06/30 05:37:24;;;;;;;;;;;16.50;99.90;;;;;;4971168;28;19956;-72
2023/06/30 05:39:53;;;;;;;;;;;16.50;99.90;;;;;;4953234;28;20016;-72
2023/06/30 05:42:19;;;;;;;;;;;16.50;99.90;;;;;;4958157;28;20456;-71
2023/06/30 05:44:47;;;;;;;;;;;16.60;99.90;;;;;;4970473;28;20103;-71
2023/06/30 05:47:13;;;;;;;;;;;16.60;99.90;;;;;;4958826;28;19926;-74
2023/06/30 05:49:39;;;;;;;;;;;16.70;99.90;;;;;;4959428;28;19921;-72
2023/06/30 05:52:07;;;;;;;;;;;16.70;99.90;;;;;;4944586;28;20510;-71
2023/06/30 05:54:32;;;;;;;;;;;16.70;99.90;;;;;;4959295;28;20666;-74
2023/06/30 05:57:06;;;;;;;;;;;18.10;99.90;;;;;;4958906;28;19925;-72
2023/06/30 05:59:31;;;;;;;;;;;16.20;99.90;;;;;;4957283;28;20038;-71
2023/06/30 06:01:57;;;;;;;;;;;16.70;99.90;;;;;;4959229;28;19934;-71
2023/06/30 06:04:23;;;;;;;;;;;16.70;99.90;;;;;;4984435;28;19972;-70
2023/06/30 06:06:49;;;;;;;;;;;16.70;99.90;;;;;;5007614;28;19932;-70
2023/06/30 06:09:14;;;;;;;;;;;16.80;99.90;;;;;;5021669;28;19929;-72
2023/06/30 06:11:40;;;;;;;;;;;16.90;99.90;;;;;;5035115;28;20345;-72
2023/06/30 06:14:09;;;;;;;;;;;17.10;99.90;;;;;;5015757;28;19928;-68
2023/06/30 06:16:38;;;;;;;;;;;15.30;99.90;;;;;;4998608;28;20452;-73
2023/06/30 06:19:03;;;;;;;;;;;17.40;99.90;;;;;;5024593;28;19924;-72
2023/06/30 06:21:29;;;;;;;;;;;17.50;99.90;;;;;;5000727;28;19928;-70
2023/06/30 06:23:55;;;;;;;;;;;17.60;99.90;;;;;;5003696;28;19929;-70
2023/06/30 06:26:21;;;;;;;;;;;17.70;99.90;;;;;;5016482;28;19980;-71
2023/06/30 06:28:46;;;;;;;;;;;17.80;99.90;;;;;;5017292;28;19925;-71
2023/06/30 06:31:12;;;;;;;;;;;17.80;99.90;;;;;;5015664;28;19925;-69
2023/06/30 06:33:37;;;;;;;;;;;17.90;99.90;;;;;;5020538;28;19924;-70
2023/06/30 06:36:05;;;;;;;;;;;17.90;99.90;;;;;;5019269;28;19920;-69
2023/06/30 06:38:32;;;;;;;;;;;18.00;99.90;;;;;;5000300;28;20686;-71
2023/06/30 06:40:57;;;;;;;;;;;18.00;99.90;;;;;;4987602;28;20438;-70
2023/06/30 06:43:26;;;;;;;;;;;18.70;99.90;;;;;;5016955;28;20438;-71
2023/06/30 06:45:57;;;;;;;;;;;18.10;99.90;;;;;;5033908;28;20257;-71
2023/06/30 06:48:27;;;;;;;;;;;18.10;99.90;;;;;;5014232;28;19944;-69
2023/06/30 06:50:56;;;;;;;;;;;18.10;99.90;;;;;;5013632;28;19948;-70
2023/06/30 06:53:25;;;;;;;;;;;18.20;99.90;;;;;;5015311;28;19925;-70
2023/06/30 06:55:53;;;;;;;;;;;18.20;99.90;;;;;;5033174;28;19936;-72
2023/06/30 06:58:20;;;;;;;;;;;18.20;99.90;;;;;;5018815;28;19927;-71
2023/06/30 07:00:52;;;;;;;;;;;18.20;99.90;;;;;;5017928;28;19954;-69
2023/06/30 07:03:19;;;;;;;;;;;18.40;99.90;;;;;;5012878;28;19932;-70
2023/06/30 07:05:51;;;;;;;;;;;18.50;99.90;;;;;;5017573;28;20306;-72
2023/06/30 07:08:21;;;;;;;;;;;18.70;99.90;;;;;;5045124;28;19929;-71
2023/06/30 07:10:54;;;;;;;;;;;18.80;99.90;;;;;;5018217;28;20007;-70
2023/06/30 07:13:23;;;;;;;;;;;19.00;99.90;;;;;;5030380;28;19929;-73
2023/06/30 07:15:53;;;;;;;;;;;19.20;99.90;;;;;;5018028;28;19929;-71
2023/06/30 07:18:20;;;;;;;;;;;19.30;99.90;;;;;;5029986;28;19951;-71
2023/06/30 07:21:02;;;;;;;;;;;19.50;99.90;;;;;;5035130;28;19924;-72
2023/06/30 07:23:34;;;;;;;;;;;19.40;99.90;;;;;;5025338;28;20020;-72
2023/06/30 07:26:00;;;;;;;;;;;19.50;99.90;;;;;;5020609;28;19986;-71
2023/06/30 07:28:32;;;;;;;;;;;19.70;99.90;;;;;;5031118;28;19921;-74
2023/06/30 07:31:15;;;;;;;;;;;19.90;99.90;;;;;;5024402;28;19982;-71
2023/06/30 07:33:42;;;;;;;;;;;20.10;99.90;;;;;;5042899;28;19921;-69
2023/06/30 07:36:11;;;;;;;;;;;20.20;99.90;;;;;;5055925;28;19928;-69
2023/06/30 07:38:38;;;;;;;;;;;20.40;99.90;;;;;;5030052;28;19925;-69
2023/06/30 07:41:04;;;;;;;;;;;20.50;99.90;;;;;;5037573;28;19975;-69
2023/06/30 07:43:30;;;;;;;;;;;20.70;99.90;;;;;;5053714;28;19960;-70
2023/06/30 07:45:56;;;;;;;;;;;20.80;99.90;;;;;;5026468;28;20342;-73
2023/06/30 07:48:21;;;;;;;;;;;20.90;99.90;;;;;;5003204;28;20003;-71
2023/06/30 07:50:47;;;;;;;;;;;20.90;99.90;;;;;;5024013;28;20342;-70
2023/06/30 07:53:14;;;;;;;;;;;20.80;99.90;;;;;;5008702;28;19925;-69
2023/06/30 07:55:42;;;;;;;;;;;20.80;99.90;;;;;;5017850;28;19983;-69
2023/06/30 07:58:08;;;;;;;;;;;20.90;99.90;;;;;;5025902;28;19929;-71
2023/06/30 08:00:34;;;;;;;;;;;21.00;99.90;;;;;;5020543;28;19925;-72
2023/06/30 08:03:00;;;;;;;;;;;21.00;99.90;;;;;;5007807;28;19925;-72
2023/06/30 08:05:26;;;;;;;;;;;21.00;99.90;;;;;;5050192;28;19925;-74
2023/06/30 08:07:51;;;;;;;;;;;20.80;99.90;;;;;;5033512;28;19928;-73
2023/06/30 08:10:17;;;;;;;;;;;21.00;99.90;;;;;;5019975;28;19921;-71
2023/06/30 08:12:43;;;;;;;;;;;21.00;99.90;;;;;;5024858;28;19925;-71
2023/06/30 08:15:12;;;;;;;;;;;21.10;99.90;;;;;;5016997;28;21383;-72
2023/06/30 08:17:37;;;;;;;;;;;21.00;99.90;;;;;;5018359;28;20577;-73
2023/06/30 08:20:03;;;;;;;;;;;21.10;99.90;;;;;;5033961;28;20654;-72
2023/06/30 08:22:29;;;;;;;;;;;21.40;99.90;;;;;;4987265;28;20592;-71
2023/06/30 08:24:54;;;;;;;;;;;21.60;99.90;;;;;;5022544;28;19929;-70
2023/06/30 08:27:21;;;;;;;;;;;21.60;99.90;;;;;;5023070;28;20027;-75
2023/06/30 08:29:54;;;;;;;;;;;21.50;99.90;;;;;;5023081;28;19929;-76
2023/06/30 08:32:37;;;;;;;;;;;21.60;99.90;;;;;;5034852;28;19931;-75
2023/06/30 08:35:20;;;;;;;;;;;21.90;99.90;;;;;;5032931;28;19972;-73
2023/06/30 08:38:02;;;;;;;;;;;22.10;99.90;;;;;;5020704;28;19927;-73
2023/06/30 08:41:09;;;;;;;;;;;22.30;99.90;;;;;;5009735;28;19928;-73
2023/06/30 08:43:44;;;;;;;;;;;22.60;99.90;;;;;;5027222;28;19970;-74
2023/06/30 08:46:16;;;;;;;;;;;22.60;99.90;;;;;;5037567;28;19920;-73
2023/06/30 08:48:45;;;;;;;;;;;22.70;99.90;;;;;;5040297;28;19933;-73
2023/06/30 08:51:37;;;;;;;;;;;22.80;99.90;;;;;;5024021;28;19924;-73
2023/06/30 08:54:22;;;;;;;;;;;22.80;99.90;;;;;;4995374;28;19928;-73
2023/06/30 08:56:53;;;;;;;;;;;22.60;99.90;;;;;;4962593;28;19937;-73
2023/06/30 09:02:37;;;;;;;;;;;20.80;99.90;;;;;;4951131;28;20451;-72
2023/06/30 09:05:41;;;;;;;;;;;23.10;99.90;;;;;;4964601;28;19922;-72
2023/06/30 09:08:36;;;;;;;;;;;23.20;99.90;;;;;;4948387;28;19937;-72
2023/06/30 09:14:38;;;;;;;;;;;23.10;99.90;;;;;;4964774;28;19945;-72
2023/06/30 09:17:30;;;;;;;;;;;23.20;99.90;;;;;;4964189;28;19930;-73
2023/06/30 09:21:10;;;;;;;;;;;21.70;99.90;;;;;;4980008;28;20490;-73
2023/06/30 09:24:08;;;;;;;;;;;23.40;99.90;;;;;;4951424;28;19948;-74
2023/06/30 09:26:44;;;;;;;;;;;23.70;99.90;;;;;;5000506;28;19968;-73
2023/06/30 09:29:35;;;;;;;;;;;23.80;99.90;;;;;;5001048;28;19929;-73
2023/06/30 09:32:17;;;;;;;;;;;24.00;99.90;;;;;;5003700;28;19961;-73
2023/06/30 09:35:06;;;;;;;;;;;23.90;99.10;;;;;;4969713;28;20372;-73
2023/06/30 09:38:35;;;;;;;;;;;24.10;99.90;;;;;;5002942;28;19983;-73
2023/06/30 09:41:18;;;;;;;;;;;24.40;99.70;;;;;;5002534;28;19925;-72
2023/06/30 09:44:22;;;;;;;;;;;24.30;99.90;;;;;;5002511;28;20287;-73
2023/06/30 09:47:01;;;;;;;;;;;24.30;99.90;;;;;;4987118;28;20011;-72
2023/06/30 09:49:39;;;;;;;;;;;24.20;99.00;;;;;;5002611;28;19929;-74
2023/06/30 09:52:42;;;;;;;;;;;24.20;99.10;;;;;;5001965;28;20302;-74
2023/06/30 09:55:53;;;;;;;;;;;24.30;99.60;;;;;;4988742;28;20460;-73
2023/06/30 10:01:50;;;;;;;;;;;24.30;99.70;;;;;;5037067;28;20462;-73
2023/06/30 10:04:41;;;;;;;;;;;24.30;99.60;;;;;;5042775;28;20028;-73
2023/06/30 10:07:41;;;;;;;;;;;24.20;99.90;;;;;;5022385;28;19923;-73
2023/06/30 10:10:51;;;;;;;;;;;24.20;99.90;;;;;;5037880;28;19970;-72
2023/06/30 10:16:53;;;;;;;;;;;25.30;99.90;;;;;;5035826;28;20295;-74
2023/06/30 10:19:27;;;;;;;;;;;24.20;99.60;;;;;;5026000;28;19933;-72
2023/06/30 10:22:39;;;;;;;;;;;24.20;98.80;;;;;;5023246;28;19924;-76
2023/06/30 10:25:28;;;;;;;;;;;24.40;99.30;;;;;;5035974;28;19943;-72
2023/06/30 10:28:13;;;;;;;;;;;24.50;98.70;;;;;;5035816;28;20390;-70
2023/06/30 10:30:39;;;;;;;;;;;24.70;98.20;;;;;;5004036;28;20438;-70
2023/06/30 10:33:06;;;;;;;;;;;24.60;99.00;;;;;;5006737;28;19920;-70
2023/06/30 10:35:33;;;;;;;;;;;24.70;98.30;;;;;;5004430;28;20769;-70
2023/06/30 10:37:59;;;;;;;;;;;24.70;98.10;;;;;;5040671;28;19947;-70
2023/06/30 10:40:36;;;;;;;;;;;24.70;98.70;;;;;;5035456;28;20290;-71
2023/06/30 10:43:05;;;;;;;;;;;24.50;97.00;;;;;;5003649;28;19970;-71
2023/06/30 10:45:34;;;;;;;;;;;24.50;97.50;;;;;;5025490;28;20004;-71
2023/06/30 10:48:09;;;;;;;;;;;24.30;97.70;;;;;;5019946;28;20394;-70
2023/06/30 10:50:52;;;;;;;;;;;24.40;96.70;;;;;;5019086;28;19921;-70
2023/06/30 10:53:37;;;;;;;;;;;24.70;97.00;;;;;;5038621;28;19924;-70
2023/06/30 10:56:03;;;;;;;;;;;24.60;96.00;;;;;;5023192;28;20402;-70
2023/06/30 10:58:39;;;;;;;;;;;24.70;97.20;;;;;;5040903;28;19925;-71
2023/06/30 11:01:11;;;;;;;;;;;24.90;97.10;;;;;;5058164;28;19964;-70
2023/06/30 11:03:55;;;;;;;;;;;24.80;96.00;;;;;;5010462;28;19986;-71
2023/06/30 11:06:30;;;;;;;;;;;25.00;97.20;;;;;;5040376;28;20812;-73
2023/06/30 11:09:00;;;;;;;;;;;24.90;95.90;;;;;;5030264;28;19936;-70
2023/06/30 11:11:27;;;;;;;;;;;25.00;97.10;;;;;;5046933;28;19925;-70
2023/06/30 11:14:17;;;;;;;;;;;25.00;96.50;;;;;;5009174;28;19932;-70
2023/06/30 11:17:05;;;;;;;;;;;25.20;94.90;;;;;;5042107;28;19925;-70
2023/06/30 11:19:32;;;;;;;;;;;25.10;95.70;;;;;;5055415;28;19929;-72
2023/06/30 11:22:26;;;;;;;;;;;25.10;96.00;;;;;;5041759;28;20501;-69
2023/06/30 11:24:52;;;;;;;;;;;25.30;95.60;;;;;;5022159;28;19978;-71
2023/06/30 11:27:21;;;;;;;;;;;25.30;95.50;;;;;;5041550;28;19925;-70
2023/06/30 11:29:52;;;;;;;;;;;25.30;96.00;;;;;;5039335;28;19947;-70
2023/06/30 11:32:26;;;;;;;;;;;25.30;95.90;;;;;;5012277;28;19929;-70
2023/06/30 11:34:53;;;;;;;;;;;25.20;94.90;;;;;;5022670;28;19924;-70
2023/06/30 11:37:20;;;;;;;;;;;25.30;94.90;;;;;;5028695;28;19921;-70
2023/06/30 11:39:56;;;;;;;;;;;25.40;95.10;;;;;;5029664;28;20379;-70
2023/06/30 11:42:42;;;;;;;;;;;25.40;95.10;;;;;;5029147;28;19921;-72
2023/06/30 11:45:08;;;;;;;;;;;25.30;93.60;;;;;;5021815;28;19925;-72
2023/06/30 11:47:34;;;;;;;;;;;25.30;94.50;;;;;;5012789;28;19925;-70
2023/06/30 11:50:25;;;;;;;;;;;25.20;94.30;;;;;;5021713;28;19921;-70
2023/06/30 11:52:53;;;;;;;;;;;25.20;93.50;;;;;;5023865;28;19925;-70
2023/06/30 11:55:27;;;;;;;;;;;25.20;94.70;;;;;;5026771;28;20345;-70
2023/06/30 11:58:08;;;;;;;;;;;25.30;94.60;;;;;;5023718;28;20397;-71
2023/06/30 12:00:44;;;;;;;;;;;25.10;94.70;;;;;;5039321;28;19925;-71
2023/06/30 12:03:14;;;;;;;;;;;25.20;94.70;;;;;;5027240;28;20745;-70
2023/06/30 12:05:54;;;;;;;;;;;25.00;94.40;;;;;;5027475;28;19936;-70
2023/06/30 12:08:21;;;;;;;;;;;24.70;94.70;;;;;;5020882;28;20068;-72
2023/06/30 12:10:48;;;;;;;;;;;24.80;94.40;;;;;;5038140;28;19947;-71
2023/06/30 12:13:17;;;;;;;;;;;25.00;94.30;;;;;;5028149;28;20282;-71
2023/06/30 12:16:00;;;;;;;;;;;24.90;94.80;;;;;;5052894;28;19979;-71
2023/06/30 12:18:47;;;;;;;;;;;25.10;94.30;;;;;;5013046;28;19931;-70
2023/06/30 12:21:14;;;;;;;;;;;25.30;94.10;;;;;;5019115;28;19928;-71
2023/06/30 12:23:59;;;;;;;;;;;25.40;94.40;;;;;;5050994;28;19929;-71
2023/06/30 12:26:32;;;;;;;;;;;25.30;93.60;;;;;;5055171;28;19927;-73
2023/06/30 12:29:02;;;;;;;;;;;25.40;94.50;;;;;;5021617;28;19928;-70
2023/06/30 12:31:32;;;;;;;;;;;25.10;93.70;;;;;;5038547;28;19938;-71
2023/06/30 12:34:04;;;;;;;;;;;25.00;94.00;;;;;;5005871;28;20492;-71
2023/06/30 12:36:30;;;;;;;;;;;24.70;93.70;;;;;;5037402;28;20035;-71
2023/06/30 12:38:57;;;;;;;;;;;24.50;94.20;;;;;;5005748;28;19990;-71
2023/06/30 12:41:25;;;;;;;;;;;24.60;94.60;;;;;;5028244;28;20302;-70
2023/06/30 12:44:09;;;;;;;;;;;24.50;94.50;;;;;;5029927;28;19928;-70
2023/06/30 12:46:45;;;;;;;;;;;25.10;94.20;;;;;;5039265;28;19932;-71
2023/06/30 12:49:12;;;;;;;;;;;25.00;94.30;;;;;;5022461;28;21311;-70
2023/06/30 12:51:39;;;;;;;;;;;24.80;94.10;;;;;;5006530;28;19925;-72
2023/06/30 12:54:22;;;;;;;;;;;24.80;94.80;;;;;;5039391;28;19921;-72
2023/06/30 12:57:09;;;;;;;;;;;24.70;94.70;;;;;;4966291;28;19929;-70
2023/06/30 12:59:43;;;;;;;;;;;24.70;95.10;;;;;;4934477;28;20488;-71
2023/06/30 13:02:12;;;;;;;;;;;24.40;94.70;;;;;;4948348;28;19926;-70
2023/06/30 13:04:39;;;;;;;;;;;24.50;94.90;;;;;;4947988;28;19922;-70
2023/06/30 13:07:24;;;;;;;;;;;24.80;94.60;;;;;;4966212;28;19950;-71
2023/06/30 13:09:58;;;;;;;;;;;24.90;94.30;;;;;;4965175;28;19926;-70
2023/06/30 13:12:30;;;;;;;;;;;25.10;94.40;;;;;;4946385;28;19937;-71
2023/06/30 13:14:59;;;;;;;;;;;25.20;94.20;;;;;;4948488;28;19921;-72
2023/06/30 13:17:39;;;;;;;;;;;25.30;94.20;;;;;;4944318;28;19926;-71
2023/06/30 13:20:15;;;;;;;;;;;25.10;93.90;;;;;;4965186;28;20462;-71
2023/06/30 13:22:59;;;;;;;;;;;25.20;93.50;;;;;;4944111;28;19949;-71
2023/06/30 13:25:26;;;;;;;;;;;25.20;93.60;;;;;;4950464;28;19936;-70
2023/06/30 13:27:57;;;;;;;;;;;25.30;93.70;;;;;;4951032;28;19933;-71
2023/06/30 13:30:23;;;;;;;;;;;25.30;93.00;;;;;;4935215;28;20455;-71
2023/06/30 13:32:50;;;;;;;;;;;25.30;93.50;;;;;;4933827;28;20435;-72
2023/06/30 13:35:21;;;;;;;;;;;25.40;93.80;;;;;;5027484;28;19990;-71
2023/06/30 13:37:53;;;;;;;;;;;25.40;93.50;;;;;;5006215;28;20381;-71
2023/06/30 13:40:23;;;;;;;;;;;25.50;93.70;;;;;;5036454;28;19925;-70
2023/06/30 13:42:55;;;;;;;;;;;25.60;93.40;;;;;;5008377;28;19931;-71
2023/06/30 13:45:23;;;;;;;;;;;25.60;93.90;;;;;;5038899;28;19982;-71
2023/06/30 13:47:49;;;;;;;;;;;25.40;93.90;;;;;;5040294;28;20374;-70
2023/06/30 13:50:14;;;;;;;;;;;25.20;94.10;;;;;;5006092;28;19978;-70
2023/06/30 13:52:46;;;;;;;;;;;25.10;93.90;;;;;;5005681;28;19975;-71
2023/06/30 13:55:11;;;;;;;;;;;25.20;94.20;;;;;;5018806;28;19921;-72
2023/06/30 13:57:38;;;;;;;;;;;25.30;94.40;;;;;;5020567;28;19921;-71
2023/06/30 14:00:05;;;;;;;;;;;25.20;93.90;;;;;;5023198;28;19936;-72
2023/06/30 14:02:31;;;;;;;;;;;24.90;93.00;;;;;;5047438;28;19925;-72
2023/06/30 14:04:58;;;;;;;;;;;24.80;93.70;;;;;;5002588;28;19932;-70
2023/06/30 14:07:25;;;;;;;;;;;24.80;94.10;;;;;;5022714;28;19928;-71
2023/06/30 14:09:58;;;;;;;;;;;25.00;93.90;;;;;;5023125;28;20263;-71
2023/06/30 14:12:25;;;;;;;;;;;25.30;94.00;;;;;;5020108;28;19924;-73
2023/06/30 14:14:51;;;;;;;;;;;25.40;93.80;;;;;;5018696;28;19964;-72
2023/06/30 14:17:17;;;;;;;;;;;25.50;93.50;;;;;;5020607;28;19925;-71
2023/06/30 14:19:43;;;;;;;;;;;25.60;93.70;;;;;;5018670;28;20374;-71
2023/06/30 14:22:10;;;;;;;;;;;25.60;94.00;;;;;;5019439;28;19932;-69
2023/06/30 14:24:35;;;;;;;;;;;25.70;93.60;;;;;;5001896;28;19978;-69
2023/06/30 14:27:02;;;;;;;;;;;25.60;93.40;;;;;;5036947;28;19929;-71
2023/06/30 14:29:30;;;;;;;;;;;25.80;94.00;;;;;;5034214;28;19971;-71
2023/06/30 14:31:58;;;;;;;;;;;25.70;93.80;;;;;;5035030;28;19967;-72
2023/06/30 14:34:24;;;;;;;;;;;25.70;93.70;;;;;;4991860;28;20383;-71
2023/06/30 14:36:51;;;;;;;;;;;25.70;94.10;;;;;;5006452;28;19935;-71
2023/06/30 14:39:20;;;;;;;;;;;25.70;93.80;;;;;;5037840;28;20009;-71
2023/06/30 14:41:48;;;;;;;;;;;25.60;94.10;;;;;;4991150;28;20574;-72
2023/06/30 14:47:39;;;;;;;;;;;25.30;93.20;;;;;;5026692;28;20259;-75
2023/06/30 14:50:53;;;;;;;;;;;25.10;93.20;;;;;;5039658;28;20793;-73
2023/06/30 14:53:25;;;;;;;;;;;25.30;93.70;;;;;;5018712;28;19933;-73
2023/06/30 14:55:54;;;;;;;;;;;25.40;92.80;;;;;;4979010;28;20388;-73
2023/06/30 14:58:25;;;;;;;;;;;25.30;93.00;;;;;;4962363;28;19929;-72
2023/06/30 15:01:04;;;;;;;;;;;25.30;92.40;;;;;;4979814;28;19922;-73
2023/06/30 15:04:19;;;;;;;;;;;23.30;92.60;;;;;;4976454;28;19929;-73
2023/06/30 15:07:10;;;;;;;;;;;24.90;92.20;;;;;;4979302;28;19948;-74
2023/06/30 15:10:33;;;;;;;;;;;24.40;92.60;;;;;;4965616;28;19984;-72
2023/06/30 15:13:41;;;;;;;;;;;24.00;93.00;;;;;;4979502;28;19937;-72
2023/06/30 15:19:46;;;;;;;;;;;23.90;93.10;;;;;;4930359;28;19936;-72
2023/06/30 15:22:43;;;;;;;;;;;23.80;91.70;;;;;;4960490;28;20664;-73
2023/06/30 15:25:53;;;;;;;;;;;23.50;92.80;;;;;;4978874;28;19929;-74
2023/06/30 15:29:04;;;;;;;;;;;23.20;92.70;;;;;;4998670;28;19936;-73
2023/06/30 15:31:50;;;;;;;;;;;23.10;93.20;;;;;;5019082;28;19964;-74
2023/06/30 15:34:25;;;;;;;;;;;22.70;93.20;;;;;;4967824;28;19933;-72
2023/06/30 15:37:37;;;;;;;;;;;22.90;93.50;;;;;;4979139;28;19929;-73
2023/06/30 15:40:06;;;;;;;;;;;22.60;93.70;;;;;;4967658;28;20430;-73
2023/06/30 15:43:02;;;;;;;;;;;22.50;93.70;;;;;;4941949;28;19976;-74
2023/06/30 15:46:13;;;;;;;;;;;22.30;93.70;;;;;;4966719;28;19981;-72
2023/06/30 15:48:57;;;;;;;;;;;22.20;94.00;;;;;;4964692;28;19933;-75
2023/06/30 15:51:28;;;;;;;;;;;22.00;94.40;;;;;;4965322;28;19929;-73
2023/06/30 15:54:38;;;;;;;;;;;22.00;94.50;;;;;;4960115;28;19968;-74
2023/06/30 15:57:14;;;;;;;;;;;22.00;94.40;;;;;;4966389;28;20008;-76
2023/06/30 16:00:05;;;;;;;;;;;22.00;94.70;;;;;;4982188;28;20154;-74
2023/06/30 16:02:53;;;;;;;;;;;22.00;94.50;;;;;;4971050;28;19933;-74
2023/06/30 16:05:32;;;;;;;;;;;21.90;94.20;;;;;;4989176;28;19959;-74
2023/06/30 16:08:47;;;;;;;;;;;21.90;94.30;;;;;;4960487;28;20420;-75
2023/06/30 16:11:37;;;;;;;;;;;21.90;94.20;;;;;;4958291;28;19926;-73
2023/06/30 16:14:26;;;;;;;;;;;21.80;94.20;;;;;;4909285;29;20287;-73
2023/06/30 16:17:13;;;;;;;;;;;23.00;94.60;;;;;;4936790;28;19930;-74
2023/06/30 16:19:51;;;;;;;;;;;21.80;94.60;;;;;;5020213;28;19925;-74
2023/06/30 16:22:41;;;;;;;;;;;21.80;94.60;;;;;;4977687;28;19926;-73